Time;durP1;ratioP1;P1;durP2;ratioP2;P2;SDS_P1;SDS_P2;PMS_P1;PMS_P2;Temp;Humidity;BMP_temperature;BMP_pressure;BME280_temperature;BME280_humidity;BME280_pressure;Samples;Min_cycle;Max_cycle;Signal;HPM_P1;HPM_P2
2022/12/06 00:00:42;;;;;;;;;;;3.00;99.90;;;;;;5067535;28;20003;-57
2022/12/06 00:03:07;;;;;;;;;;;3.00;99.90;;;;;;5067607;28;19913;-57
2022/12/06 00:05:33;;;;;;;;;;;3.00;99.90;;;;;;5064483;28;19920;-58
2022/12/06 00:07:58;;;;;;;;;;;3.00;99.90;;;;;;5065436;28;19963;-58
2022/12/06 00:10:24;;;;;;;;;;;3.00;99.90;;;;;;5067463;28;20701;-59
2022/12/06 00:12:50;;;;;;;;;;;3.00;99.90;;;;;;5062817;28;19959;-57
2022/12/06 00:15:15;;;;;;;;;;;3.00;99.90;;;;;;5065327;28;19948;-61
2022/12/06 00:17:41;;;;;;;;;;;3.10;99.90;;;;;;5066548;28;19917;-59
2022/12/06 00:20:07;;;;;;;;;;;3.10;99.90;;;;;;5067475;28;19912;-60
2022/12/06 00:22:32;;;;;;;;;;;3.10;99.90;;;;;;5065578;28;20027;-58
2022/12/06 00:24:58;;;;;;;;;;;3.10;99.90;;;;;;5064862;28;19919;-60
2022/12/06 00:27:23;;;;;;;;;;;3.10;99.90;;;;;;5065859;28;20370;-59
2022/12/06 00:29:48;;;;;;;;;;;3.10;99.90;;;;;;5061233;28;19924;-57
2022/12/06 00:32:14;;;;;;;;;;;3.10;99.90;;;;;;5066382;28;19916;-57
2022/12/06 00:34:39;;;;;;;;;;;3.10;99.90;;;;;;5068011;28;20016;-58
2022/12/06 00:37:05;;;;;;;;;;;3.10;99.90;;;;;;5068659;28;19958;-59
2022/12/06 00:39:30;;;;;;;;;;;3.10;99.90;;;;;;5066979;28;20216;-60
2022/12/06 00:41:56;;;;;;;;;;;3.10;99.90;;;;;;5061495;28;19967;-59
2022/12/06 00:44:21;;;;;;;;;;;3.10;99.90;;;;;;5060767;28;19944;-56
2022/12/06 00:46:47;;;;;;;;;;;3.10;99.90;;;;;;5063668;28;20029;-59
2022/12/06 00:49:12;;;;;;;;;;;3.00;99.90;;;;;;5063776;28;20424;-57
2022/12/06 00:51:38;;;;;;;;;;;3.10;99.90;;;;;;5066755;28;19920;-60
2022/12/06 00:54:04;;;;;;;;;;;3.10;99.90;;;;;;5065724;28;20253;-60
2022/12/06 00:56:30;;;;;;;;;;;3.10;99.90;;;;;;5065100;28;19947;-60
2022/12/06 00:58:56;;;;;;;;;;;3.10;99.90;;;;;;5060468;28;20360;-59
2022/12/06 01:01:23;;;;;;;;;;;3.10;99.90;;;;;;5064099;28;19912;-59
2022/12/06 01:03:52;;;;;;;;;;;3.10;99.90;;;;;;5064430;28;19956;-58
2022/12/06 01:06:18;;;;;;;;;;;3.20;99.90;;;;;;5067524;28;19957;-58
2022/12/06 01:08:44;;;;;;;;;;;3.20;99.90;;;;;;5061535;28;19999;-59
2022/12/06 01:11:10;;;;;;;;;;;3.20;99.90;;;;;;5066471;28;19997;-58
2022/12/06 01:13:36;;;;;;;;;;;3.20;99.90;;;;;;5064603;28;19958;-60
2022/12/06 01:16:05;;;;;;;;;;;3.20;99.90;;;;;;5067507;28;19913;-60
2022/12/06 01:18:31;;;;;;;;;;;3.30;99.90;;;;;;5061494;28;19995;-58
2022/12/06 01:21:01;;;;;;;;;;;3.30;99.90;;;;;;5061847;28;20040;-59
2022/12/06 01:23:26;;;;;;;;;;;3.30;99.90;;;;;;5064429;28;20003;-59
2022/12/06 01:25:52;;;;;;;;;;;3.30;99.90;;;;;;5059045;28;20015;-60
2022/12/06 01:28:17;;;;;;;;;;;3.30;99.90;;;;;;5063437;28;19956;-57
2022/12/06 01:30:43;;;;;;;;;;;3.30;99.90;;;;;;5063917;28;20000;-58
2022/12/06 01:33:08;;;;;;;;;;;3.40;99.90;;;;;;5066290;28;19951;-57
2022/12/06 01:35:37;;;;;;;;;;;3.30;99.90;;;;;;5063794;28;19916;-58
2022/12/06 01:38:03;;;;;;;;;;;3.30;99.90;;;;;;5063688;28;20258;-60
2022/12/06 01:40:28;;;;;;;;;;;3.40;99.90;;;;;;5066250;28;20004;-53
2022/12/06 01:42:54;;;;;;;;;;;3.40;99.90;;;;;;5066001;28;19918;-59
2022/12/06 01:45:19;;;;;;;;;;;3.40;99.90;;;;;;5064403;28;20497;-57
2022/12/06 01:47:45;;;;;;;;;;;3.40;99.90;;;;;;5064113;28;20355;-60
2022/12/06 01:50:22;;;;;;;;;;;3.40;99.90;;;;;;5063321;28;19959;-58
2022/12/06 01:53:01;;;;;;;;;;;3.40;99.90;;;;;;5061167;28;20006;-58
2022/12/06 01:55:28;;;;;;;;;;;3.50;99.90;;;;;;5062743;28;19928;-59
2022/12/06 01:57:57;;;;;;;;;;;3.40;99.90;;;;;;5060127;28;19909;-59
2022/12/06 02:00:22;;;;;;;;;;;3.40;99.90;;;;;;5066214;28;19978;-58
2022/12/06 02:02:48;;;;;;;;;;;3.40;99.90;;;;;;5066475;28;20390;-59
2022/12/06 02:05:14;;;;;;;;;;;3.40;99.90;;;;;;5060374;28;19959;-59
2022/12/06 02:07:40;;;;;;;;;;;3.40;99.90;;;;;;5063262;28;20337;-57
2022/12/06 02:10:06;;;;;;;;;;;3.50;99.90;;;;;;5059374;28;19951;-58
2022/12/06 02:12:32;;;;;;;;;;;3.50;99.90;;;;;;5063918;28;19956;-57
2022/12/06 02:14:58;;;;;;;;;;;3.50;99.90;;;;;;5062929;28;20426;-59
2022/12/06 02:17:42;;;;;;;;;;;3.50;99.90;;;;;;5059336;28;19999;-58
2022/12/06 02:20:19;;;;;;;;;;;3.50;99.90;;;;;;5060983;28;19920;-59
2022/12/06 02:22:54;;;;;;;;;;;3.50;99.90;;;;;;5067972;28;19999;-56
2022/12/06 02:25:38;;;;;;;;;;;3.50;99.90;;;;;;5061461;28;20048;-57
2022/12/06 02:28:03;;;;;;;;;;;3.50;99.90;;;;;;5059234;28;19920;-59
2022/12/06 02:30:35;;;;;;;;;;;3.60;99.90;;;;;;5063822;28;19916;-59
2022/12/06 02:33:04;;;;;;;;;;;3.60;99.90;;;;;;5065487;28;20298;-59
2022/12/06 02:35:32;;;;;;;;;;;3.60;99.90;;;;;;5069361;28;19917;-56
2022/12/06 02:37:57;;;;;;;;;;;3.60;99.90;;;;;;5068374;28;20482;-59
2022/12/06 02:40:26;;;;;;;;;;;3.70;99.90;;;;;;5067994;28;19999;-60
2022/12/06 02:42:57;;;;;;;;;;;3.70;99.90;;;;;;5068858;28;19913;-55
2022/12/06 02:45:32;;;;;;;;;;;3.70;99.90;;;;;;5064782;28;19921;-58
2022/12/06 02:48:00;;;;;;;;;;;3.70;99.90;;;;;;5066945;28;20310;-59
2022/12/06 02:50:29;;;;;;;;;;;3.70;99.90;;;;;;5094716;22;20011;-65
2022/12/06 02:52:57;;;;;;;;;;;3.70;99.90;;;;;;5086110;28;20444;-64
2022/12/06 02:55:23;;;;;;;;;;;3.60;99.90;;;;;;5089195;28;19912;-62
2022/12/06 02:57:50;;;;;;;;;;;3.60;99.90;;;;;;5086562;28;19942;-62
2022/12/06 03:00:24;;;;;;;;;;;3.70;99.90;;;;;;5084883;28;19912;-62
2022/12/06 03:02:55;;;;;;;;;;;3.70;99.90;;;;;;5089249;28;19908;-64
2022/12/06 03:05:24;;;;;;;;;;;3.80;99.90;;;;;;5090062;28;19920;-66
2022/12/06 03:07:50;;;;;;;;;;;3.90;99.90;;;;;;5089292;28;19947;-65
2022/12/06 03:10:22;;;;;;;;;;;3.90;99.90;;;;;;5091617;28;20417;-65
2022/12/06 03:12:54;;;;;;;;;;;3.90;99.90;;;;;;5091808;28;19920;-64
2022/12/06 03:15:44;;;;;;;;;;;3.90;99.90;;;;;;5088810;28;19912;-65
2022/12/06 03:18:30;;;;;;;;;;;3.90;99.90;;;;;;5086833;28;19935;-65
2022/12/06 03:21:19;;;;;;;;;;;3.90;99.90;;;;;;5087621;28;19962;-64
2022/12/06 03:23:45;;;;;;;;;;;3.90;99.90;;;;;;5076438;28;19969;-64
2022/12/06 03:26:13;;;;;;;;;;;3.90;99.90;;;;;;5074663;28;19942;-65
2022/12/06 03:28:38;;;;;;;;;;;4.00;99.90;;;;;;5087806;28;19923;-65
2022/12/06 03:31:06;;;;;;;;;;;4.00;99.90;;;;;;5087476;28;19908;-66
2022/12/06 03:33:32;;;;;;;;;;;3.90;99.90;;;;;;5090704;28;19960;-64
2022/12/06 03:35:58;;;;;;;;;;;3.90;99.90;;;;;;5087811;28;19913;-62
2022/12/06 03:38:35;;;;;;;;;;;3.90;99.90;;;;;;5090502;28;19919;-62
2022/12/06 03:41:02;;;;;;;;;;;3.90;99.90;;;;;;5089514;28;19916;-62
2022/12/06 03:43:28;;;;;;;;;;;3.90;99.90;;;;;;5087739;28;19913;-62
2022/12/06 03:46:11;;;;;;;;;;;3.90;99.90;;;;;;5085851;28;22217;-65
2022/12/06 03:48:42;;;;;;;;;;;3.90;99.90;;;;;;5090613;28;19922;-65
2022/12/06 03:51:09;;;;;;;;;;;3.90;99.90;;;;;;5085163;28;19923;-66
2022/12/06 03:53:43;;;;;;;;;;;3.90;99.90;;;;;;5087796;28;20422;-65
2022/12/06 03:56:08;;;;;;;;;;;3.90;99.90;;;;;;5085534;28;19951;-63
2022/12/06 03:58:33;;;;;;;;;;;3.90;99.90;;;;;;5091695;28;19986;-62
2022/12/06 04:01:03;;;;;;;;;;;3.90;99.90;;;;;;5081266;28;19990;-65
2022/12/06 04:03:29;;;;;;;;;;;3.90;99.90;;;;;;5085600;28;19912;-62
2022/12/06 04:05:54;;;;;;;;;;;3.90;99.90;;;;;;5089066;28;20340;-63
2022/12/06 04:08:20;;;;;;;;;;;3.90;99.90;;;;;;5088515;28;19920;-62
2022/12/06 04:10:46;;;;;;;;;;;3.90;99.90;;;;;;5089013;28;19920;-66
2022/12/06 04:13:11;;;;;;;;;;;3.90;99.90;;;;;;5088216;28;20571;-66
2022/12/06 04:15:37;;;;;;;;;;;4.00;99.90;;;;;;5088851;28;19912;-65
2022/12/06 04:18:14;;;;;;;;;;;3.90;99.90;;;;;;5092109;28;20303;-65
2022/12/06 04:23:25;;;;;;;;;;;3.90;99.90;;;;;;5086993;28;19922;-65
2022/12/06 04:25:50;;;;;;;;;;;3.90;99.90;;;;;;5088359;28;19919;-64
2022/12/06 04:39:13;;;;;;;;;;;3.90;99.90;;;;;;5088619;28;19918;-63
2022/12/06 04:44:22;;;;;;;;;;;4.00;99.90;;;;;;5087251;28;19919;-63
2022/12/06 04:46:48;;;;;;;;;;;4.10;99.90;;;;;;5085645;28;19912;-64
2022/12/06 04:49:13;;;;;;;;;;;4.10;99.90;;;;;;5088094;28;20006;-64
2022/12/06 04:51:39;;;;;;;;;;;4.10;99.90;;;;;;5087735;28;20362;-65
2022/12/06 04:54:06;;;;;;;;;;;4.10;99.90;;;;;;5090427;28;20049;-64
2022/12/06 04:56:31;;;;;;;;;;;4.10;99.90;;;;;;5088204;28;19912;-64
2022/12/06 04:58:57;;;;;;;;;;;4.10;99.90;;;;;;5090833;28;19912;-64
2022/12/06 05:01:22;;;;;;;;;;;4.10;99.90;;;;;;5086563;28;19912;-64
2022/12/06 05:03:47;;;;;;;;;;;4.10;99.90;;;;;;5083502;28;20377;-65
2022/12/06 05:06:13;;;;;;;;;;;4.10;99.90;;;;;;5085030;28;19929;-62
2022/12/06 05:08:38;;;;;;;;;;;4.10;99.90;;;;;;5087698;28;20015;-63
2022/12/06 05:11:04;;;;;;;;;;;4.10;99.90;;;;;;5088684;28;19955;-64
2022/12/06 05:13:29;;;;;;;;;;;4.10;99.90;;;;;;5083396;28;19920;-63
2022/12/06 05:15:56;;;;;;;;;;;4.20;99.90;;;;;;5085639;28;19974;-65
2022/12/06 05:18:22;;;;;;;;;;;4.20;99.90;;;;;;5091052;28;20000;-63
2022/12/06 05:20:48;;;;;;;;;;;4.20;99.90;;;;;;5088534;28;20471;-64
2022/12/06 05:23:14;;;;;;;;;;;4.20;99.90;;;;;;5089073;28;19920;-64
2022/12/06 05:25:40;;;;;;;;;;;4.20;99.90;;;;;;5089899;28;20401;-64
2022/12/06 05:28:05;;;;;;;;;;;4.20;99.90;;;;;;5090465;28;20007;-64
2022/12/06 05:30:31;;;;;;;;;;;4.20;99.90;;;;;;5090618;28;19908;-65
2022/12/06 05:32:56;;;;;;;;;;;4.20;99.90;;;;;;5081981;28;19923;-65
2022/12/06 05:35:22;;;;;;;;;;;4.20;99.90;;;;;;5085315;28;19948;-65
2022/12/06 05:37:47;;;;;;;;;;;4.20;99.90;;;;;;5085373;28;19927;-64
2022/12/06 05:40:13;;;;;;;;;;;4.20;99.90;;;;;;5086442;28;19912;-64
2022/12/06 05:42:39;;;;;;;;;;;4.20;99.90;;;;;;5080841;28;19916;-63
2022/12/06 05:45:04;;;;;;;;;;;4.20;99.90;;;;;;5095676;28;19908;-64
2022/12/06 05:47:30;;;;;;;;;;;4.30;99.90;;;;;;5084806;28;19912;-64
2022/12/06 05:49:55;;;;;;;;;;;4.30;99.90;;;;;;5086377;28;20351;-64
2022/12/06 05:52:21;;;;;;;;;;;4.30;99.90;;;;;;5086834;28;20296;-65
2022/12/06 05:54:46;;;;;;;;;;;4.30;99.90;;;;;;5090949;28;19912;-65
2022/12/06 05:57:12;;;;;;;;;;;4.20;99.90;;;;;;5092259;28;19916;-65
2022/12/06 05:59:37;;;;;;;;;;;4.10;99.90;;;;;;5087921;28;19935;-65
2022/12/06 06:02:03;;;;;;;;;;;4.20;99.90;;;;;;5084928;28;20401;-64
2022/12/06 06:04:28;;;;;;;;;;;4.20;99.90;;;;;;5086700;28;19923;-65
2022/12/06 06:06:53;;;;;;;;;;;4.20;99.90;;;;;;5084567;28;19916;-64
2022/12/06 06:09:19;;;;;;;;;;;4.20;99.90;;;;;;5086846;28;19916;-64
2022/12/06 06:11:44;;;;;;;;;;;4.20;99.90;;;;;;5090879;28;20062;-65
2022/12/06 06:14:10;;;;;;;;;;;4.20;99.90;;;;;;5083164;28;19916;-65
2022/12/06 06:16:35;;;;;;;;;;;4.10;99.90;;;;;;5091659;28;19931;-65
2022/12/06 06:19:01;;;;;;;;;;;4.10;99.90;;;;;;5086359;28;19920;-63
2022/12/06 06:21:27;;;;;;;;;;;4.10;99.90;;;;;;5091443;28;19917;-65
2022/12/06 06:23:54;;;;;;;;;;;4.10;99.90;;;;;;5091499;28;19919;-66
2022/12/06 06:26:20;;;;;;;;;;;4.20;99.90;;;;;;5088414;28;19918;-65
2022/12/06 06:28:46;;;;;;;;;;;4.20;99.90;;;;;;5087125;28;19916;-67
2022/12/06 06:31:11;;;;;;;;;;;4.20;99.90;;;;;;5087358;28;19919;-64
2022/12/06 06:33:37;;;;;;;;;;;4.10;99.90;;;;;;5092506;28;19957;-65
2022/12/06 06:36:02;;;;;;;;;;;4.20;99.90;;;;;;5090898;28;19958;-64
2022/12/06 06:38:28;;;;;;;;;;;4.20;99.90;;;;;;5087530;28;19918;-66
2022/12/06 06:40:53;;;;;;;;;;;4.20;99.90;;;;;;5093736;28;20321;-66
2022/12/06 06:43:19;;;;;;;;;;;4.20;99.90;;;;;;5090403;28;19912;-66
2022/12/06 06:45:50;;;;;;;;;;;4.20;99.90;;;;;;5090839;28;19970;-65
2022/12/06 06:48:15;;;;;;;;;;;4.20;99.90;;;;;;5093005;28;20340;-66
2022/12/06 06:50:41;;;;;;;;;;;4.20;99.90;;;;;;5090621;28;19924;-68
2022/12/06 06:53:06;;;;;;;;;;;4.30;99.90;;;;;;5092530;28;19973;-65
2022/12/06 06:55:34;;;;;;;;;;;4.30;99.90;;;;;;5088342;28;19923;-65
2022/12/06 06:58:00;;;;;;;;;;;4.30;99.90;;;;;;5089538;28;19967;-65
2022/12/06 07:00:25;;;;;;;;;;;4.30;99.90;;;;;;5080862;28;19967;-66
2022/12/06 07:02:50;;;;;;;;;;;4.30;99.90;;;;;;5088720;28;19916;-66
2022/12/06 07:05:16;;;;;;;;;;;4.30;99.90;;;;;;5090021;28;20373;-65
2022/12/06 07:07:41;;;;;;;;;;;4.30;99.90;;;;;;5090135;28;20479;-65
2022/12/06 07:10:07;;;;;;;;;;;4.30;99.90;;;;;;5087796;28;20703;-63
2022/12/06 07:12:32;;;;;;;;;;;4.30;99.90;;;;;;5092191;28;20417;-64
2022/12/06 07:14:58;;;;;;;;;;;4.30;99.90;;;;;;5087565;28;19960;-62
2022/12/06 07:17:23;;;;;;;;;;;4.30;99.90;;;;;;5088215;28;19924;-62
2022/12/06 07:19:49;;;;;;;;;;;4.30;99.90;;;;;;5091723;28;19915;-64
2022/12/06 07:22:14;;;;;;;;;;;4.30;99.90;;;;;;5091562;28;19927;-63
2022/12/06 07:24:39;;;;;;;;;;;4.30;99.90;;;;;;5090470;28;19923;-64
2022/12/06 07:27:05;;;;;;;;;;;4.30;99.90;;;;;;5088968;28;19912;-63
2022/12/06 07:29:30;;;;;;;;;;;4.30;99.90;;;;;;5086303;28;20443;-63
2022/12/06 07:31:56;;;;;;;;;;;4.30;99.90;;;;;;5090243;28;20541;-63
2022/12/06 07:34:22;;;;;;;;;;;4.30;99.90;;;;;;5088897;28;20298;-63
2022/12/06 07:36:47;;;;;;;;;;;4.40;99.90;;;;;;5088454;28;20328;-63
2022/12/06 07:39:13;;;;;;;;;;;4.40;99.90;;;;;;5090700;28;20002;-63
2022/12/06 07:47:07;;;;;;;;;;;4.40;99.90;;;;;;5082838;28;19920;-63
2022/12/06 07:49:32;;;;;;;;;;;4.50;99.90;;;;;;5088077;28;19920;-64
2022/12/06 07:51:58;;;;;;;;;;;4.50;99.90;;;;;;5084693;28;20499;-63
2022/12/06 07:54:23;;;;;;;;;;;4.50;99.90;;;;;;5092996;28;19998;-63
2022/12/06 07:56:49;;;;;;;;;;;4.60;99.90;;;;;;5092208;28;19959;-63
2022/12/06 07:59:14;;;;;;;;;;;4.50;99.90;;;;;;5083350;28;19916;-62
2022/12/06 08:01:40;;;;;;;;;;;4.60;99.90;;;;;;5085419;28;20382;-62
2022/12/06 08:04:06;;;;;;;;;;;4.50;99.90;;;;;;5091952;28;19908;-60
2022/12/06 08:06:32;;;;;;;;;;;4.60;99.90;;;;;;5089704;28;20298;-59
2022/12/06 08:08:57;;;;;;;;;;;4.50;99.90;;;;;;5090004;28;19916;-59
2022/12/06 08:11:23;;;;;;;;;;;4.50;99.90;;;;;;5086835;28;19928;-60
2022/12/06 08:13:49;;;;;;;;;;;4.60;99.90;;;;;;5090225;28;19912;-64
2022/12/06 08:16:14;;;;;;;;;;;4.50;99.90;;;;;;5086103;28;19941;-61
2022/12/06 08:18:40;;;;;;;;;;;4.60;99.90;;;;;;5089526;28;19918;-62
2022/12/06 08:21:06;;;;;;;;;;;4.60;99.90;;;;;;5089933;28;20357;-62
2022/12/06 08:23:31;;;;;;;;;;;4.70;99.90;;;;;;5090327;28;19912;-60
2022/12/06 08:25:57;;;;;;;;;;;4.70;99.90;;;;;;5086552;28;19931;-62
2022/12/06 08:28:23;;;;;;;;;;;4.70;99.90;;;;;;5090814;28;20270;-62
2022/12/06 08:30:48;;;;;;;;;;;4.70;99.90;;;;;;5089965;28;19966;-61
2022/12/06 08:33:14;;;;;;;;;;;4.70;99.90;;;;;;5089157;28;20000;-62
2022/12/06 08:35:39;;;;;;;;;;;4.70;99.90;;;;;;5089431;28;20306;-63
2022/12/06 08:38:05;;;;;;;;;;;4.70;99.90;;;;;;5091695;28;19908;-62
2022/12/06 08:40:30;;;;;;;;;;;4.70;99.90;;;;;;5088348;28;19912;-62
2022/12/06 08:42:56;;;;;;;;;;;4.70;99.90;;;;;;5089231;28;20014;-59
2022/12/06 08:45:21;;;;;;;;;;;4.70;99.90;;;;;;5088917;28;19912;-62
2022/12/06 08:47:47;;;;;;;;;;;4.80;99.90;;;;;;5089453;28;19920;-59
2022/12/06 08:50:12;;;;;;;;;;;4.80;99.90;;;;;;5090507;28;20019;-60
2022/12/06 08:52:38;;;;;;;;;;;4.80;99.90;;;;;;5086762;28;19919;-61
2022/12/06 08:55:03;;;;;;;;;;;4.80;99.90;;;;;;5089758;28;19961;-60
2022/12/06 08:57:30;;;;;;;;;;;4.90;99.90;;;;;;5091167;28;19908;-59
2022/12/06 08:59:56;;;;;;;;;;;4.90;99.90;;;;;;5088745;28;20293;-61
2022/12/06 09:02:21;;;;;;;;;;;5.00;99.90;;;;;;5083994;28;19965;-62
2022/12/06 09:04:49;;;;;;;;;;;5.00;99.90;;;;;;5087499;28;20710;-61
2022/12/06 09:07:14;;;;;;;;;;;5.00;99.90;;;;;;5077753;28;19940;-61
2022/12/06 09:09:40;;;;;;;;;;;5.00;99.90;;;;;;5086038;28;19962;-64
2022/12/06 09:12:05;;;;;;;;;;;5.00;99.90;;;;;;5086990;28;20374;-63
2022/12/06 09:14:31;;;;;;;;;;;5.00;99.90;;;;;;5085250;28;19912;-63
2022/12/06 09:16:56;;;;;;;;;;;5.10;99.90;;;;;;5083835;28;19923;-63
2022/12/06 09:19:21;;;;;;;;;;;5.20;99.90;;;;;;5085587;28;19912;-64
2022/12/06 09:21:47;;;;;;;;;;;5.10;99.90;;;;;;5088232;28;19920;-62
2022/12/06 09:24:15;;;;;;;;;;;5.20;99.90;;;;;;5082673;28;19919;-64
2022/12/06 09:26:40;;;;;;;;;;;5.20;99.90;;;;;;5090481;28;19946;-63
2022/12/06 09:29:06;;;;;;;;;;;5.20;99.90;;;;;;5089609;28;19916;-64
2022/12/06 09:31:32;;;;;;;;;;;5.20;99.90;;;;;;5089434;28;19939;-63
2022/12/06 09:33:57;;;;;;;;;;;5.30;99.90;;;;;;5086045;28;19997;-63
2022/12/06 09:36:24;;;;;;;;;;;5.30;99.90;;;;;;5089863;28;19923;-63
2022/12/06 09:39:25;;;;;;;;;;;5.30;99.90;;;;;;5086573;28;20457;-64
2022/12/06 09:42:12;;;;;;;;;;;5.40;99.90;;;;;;5026959;28;20075;-63
2022/12/06 09:44:49;;;;;;;;;;;5.40;99.90;;;;;;5078945;28;19959;-64
2022/12/06 09:47:32;;;;;;;;;;;5.40;99.90;;;;;;5091107;28;19912;-65
2022/12/06 09:50:10;;;;;;;;;;;5.40;99.90;;;;;;5086521;28;19973;-65
2022/12/06 09:52:45;;;;;;;;;;;5.40;99.90;;;;;;5086186;28;19919;-65
2022/12/06 09:55:22;;;;;;;;;;;5.40;99.90;;;;;;5085536;28;20086;-64
2022/12/06 09:57:56;;;;;;;;;;;5.50;99.90;;;;;;5087609;28;20627;-63
2022/12/06 10:00:22;;;;;;;;;;;5.50;99.90;;;;;;5089932;28;20347;-64
2022/12/06 10:03:06;;;;;;;;;;;5.50;99.90;;;;;;5088319;28;19920;-64
2022/12/06 10:06:01;;;;;;;;;;;5.60;99.90;;;;;;5087027;28;20457;-63
2022/12/06 10:08:27;;;;;;;;;;;5.60;99.90;;;;;;5072184;28;19916;-64
2022/12/06 10:10:56;;;;;;;;;;;5.60;99.90;;;;;;5093574;28;19919;-64
2022/12/06 10:13:21;;;;;;;;;;;5.60;99.90;;;;;;5086284;28;19908;-64
2022/12/06 10:16:11;;;;;;;;;;;5.60;99.90;;;;;;5090034;28;20397;-63
2022/12/06 10:18:36;;;;;;;;;;;5.60;99.90;;;;;;5087708;28;19959;-64
2022/12/06 10:21:17;;;;;;;;;;;5.70;99.90;;;;;;5087891;28;20330;-64
2022/12/06 10:23:45;;;;;;;;;;;5.60;99.90;;;;;;5085196;28;20267;-64
2022/12/06 10:26:15;;;;;;;;;;;5.70;99.90;;;;;;5090406;28;20002;-65
2022/12/06 10:28:55;;;;;;;;;;;5.70;99.90;;;;;;5089157;28;19923;-65
2022/12/06 10:31:20;;;;;;;;;;;5.80;99.90;;;;;;5090313;28;19932;-65
2022/12/06 10:34:10;;;;;;;;;;;5.70;99.90;;;;;;5088366;28;20452;-64
2022/12/06 10:36:41;;;;;;;;;;;5.70;99.90;;;;;;5082631;28;19920;-65
2022/12/06 10:39:12;;;;;;;;;;;5.70;99.90;;;;;;5081396;28;20334;-65
2022/12/06 10:41:58;;;;;;;;;;;5.80;99.90;;;;;;5063215;28;20049;-63
2022/12/06 10:44:31;;;;;;;;;;;5.80;99.90;;;;;;5030752;28;20007;-63
2022/12/06 10:47:04;;;;;;;;;;;5.80;99.90;;;;;;5084028;28;20053;-62
2022/12/06 10:49:38;;;;;;;;;;;5.80;99.90;;;;;;5080159;28;19916;-63
2022/12/06 10:52:24;;;;;;;;;;;5.80;99.90;;;;;;5082220;28;19923;-65
2022/12/06 10:54:53;;;;;;;;;;;5.80;99.90;;;;;;5090650;28;20010;-64
2022/12/06 10:57:27;;;;;;;;;;;5.80;99.90;;;;;;5087242;28;19919;-64
2022/12/06 10:59:57;;;;;;;;;;;5.80;99.90;;;;;;5086847;28;19998;-64
2022/12/06 11:02:36;;;;;;;;;;;5.80;99.90;;;;;;5087757;28;19951;-64
2022/12/06 11:05:03;;;;;;;;;;;5.80;99.90;;;;;;5087110;28;19924;-64
2022/12/06 11:07:33;;;;;;;;;;;5.90;99.90;;;;;;5089097;28;20505;-64
2022/12/06 11:09:59;;;;;;;;;;;5.80;99.90;;;;;;5089418;28;19920;-64
2022/12/06 11:12:28;;;;;;;;;;;5.80;99.90;;;;;;5082309;28;19965;-64
2022/12/06 11:14:57;;;;;;;;;;;5.80;99.90;;;;;;5090615;28;19916;-64
2022/12/06 11:17:28;;;;;;;;;;;5.90;99.90;;;;;;5080727;28;19950;-64
2022/12/06 11:19:58;;;;;;;;;;;5.90;99.90;;;;;;5087632;28;20401;-62
2022/12/06 11:22:39;;;;;;;;;;;5.90;99.90;;;;;;5087946;28;19947;-64
2022/12/06 11:25:08;;;;;;;;;;;5.90;99.90;;;;;;5085281;28;19958;-64
2022/12/06 11:27:39;;;;;;;;;;;5.90;99.90;;;;;;5085928;28;19916;-64
2022/12/06 11:30:12;;;;;;;;;;;5.90;99.90;;;;;;5087599;28;19928;-64
2022/12/06 11:32:39;;;;;;;;;;;5.90;99.90;;;;;;5087858;28;19916;-64
2022/12/06 11:35:04;;;;;;;;;;;5.90;99.90;;;;;;5084479;28;19947;-65
2022/12/06 11:37:32;;;;;;;;;;;6.00;99.90;;;;;;5090704;28;19970;-64
2022/12/06 11:40:04;;;;;;;;;;;5.90;99.90;;;;;;5069670;28;19916;-64
2022/12/06 11:42:29;;;;;;;;;;;5.90;99.90;;;;;;5084280;28;19912;-64
2022/12/06 11:45:13;;;;;;;;;;;5.90;99.90;;;;;;5083018;28;19930;-65
2022/12/06 11:47:38;;;;;;;;;;;6.00;99.90;;;;;;5090593;28;19919;-64
2022/12/06 11:50:11;;;;;;;;;;;6.00;99.90;;;;;;5088080;28;20011;-64
2022/12/06 11:52:40;;;;;;;;;;;6.00;99.90;;;;;;5090112;28;19947;-64
2022/12/06 11:55:17;;;;;;;;;;;6.00;99.90;;;;;;5082296;28;20024;-64
2022/12/06 11:57:54;;;;;;;;;;;6.00;99.90;;;;;;5077692;28;19920;-64
2022/12/06 12:00:24;;;;;;;;;;;6.00;99.90;;;;;;5066342;28;19916;-64
2022/12/06 12:02:51;;;;;;;;;;;6.00;99.90;;;;;;5080536;28;19916;-64
2022/12/06 12:05:19;;;;;;;;;;;6.00;99.90;;;;;;5075704;28;19912;-64
2022/12/06 12:07:52;;;;;;;;;;;6.00;99.90;;;;;;5076489;28;19916;-65
2022/12/06 12:10:20;;;;;;;;;;;6.00;99.90;;;;;;5077383;28;19924;-65
2022/12/06 12:15:31;;;;;;;;;;;6.10;99.90;;;;;;5085138;28;20407;-64
2022/12/06 12:17:57;;;;;;;;;;;6.10;99.90;;;;;;5079999;28;19963;-64
2022/12/06 12:20:27;;;;;;;;;;;6.10;99.90;;;;;;5077534;28;19912;-64
2022/12/06 12:23:12;;;;;;;;;;;6.10;99.90;;;;;;5083297;28;19962;-64
2022/12/06 12:25:41;;;;;;;;;;;6.10;99.90;;;;;;5087531;28;19972;-65
2022/12/06 12:28:25;;;;;;;;;;;6.10;99.90;;;;;;5084859;28;19921;-65
2022/12/06 12:30:53;;;;;;;;;;;6.10;99.90;;;;;;5099681;22;20021;-62
2022/12/06 12:33:19;;;;;;;;;;;6.10;99.90;;;;;;5064140;28;19912;-53
2022/12/06 12:35:46;;;;;;;;;;;6.10;99.90;;;;;;5076323;28;19974;-55
2022/12/06 12:38:12;;;;;;;;;;;6.10;99.90;;;;;;5080600;28;19923;-55
2022/12/06 12:40:39;;;;;;;;;;;6.10;99.90;;;;;;5070234;28;19920;-54
2022/12/06 12:43:07;;;;;;;;;;;6.20;99.90;;;;;;5064274;28;20003;-56
2022/12/06 12:45:33;;;;;;;;;;;6.10;99.90;;;;;;5061719;28;19947;-55
2022/12/06 12:48:00;;;;;;;;;;;6.10;99.90;;;;;;5063333;28;20322;-56
2022/12/06 12:50:26;;;;;;;;;;;6.10;99.90;;;;;;5063960;28;19920;-57
2022/12/06 12:52:52;;;;;;;;;;;6.10;99.90;;;;;;5064840;28;19920;-57
2022/12/06 12:55:26;;;;;;;;;;;6.10;99.90;;;;;;5065812;28;20003;-56
2022/12/06 12:57:52;;;;;;;;;;;6.20;99.90;;;;;;5058706;28;19921;-54
2022/12/06 13:00:21;;;;;;;;;;;6.30;99.90;;;;;;5063754;28;19912;-59
2022/12/06 13:02:52;;;;;;;;;;;6.30;99.90;;;;;;5063126;28;19920;-57
2022/12/06 13:05:22;;;;;;;;;;;6.30;99.90;;;;;;5062980;28;19913;-54
2022/12/06 13:07:48;;;;;;;;;;;6.30;99.90;;;;;;5066812;28;19967;-56
2022/12/06 13:10:17;;;;;;;;;;;6.20;99.90;;;;;;5060962;28;19925;-56
2022/12/06 13:12:45;;;;;;;;;;;6.20;99.90;;;;;;5061475;28;20297;-57
2022/12/06 13:15:13;;;;;;;;;;;6.20;99.90;;;;;;5059286;28;20003;-58
2022/12/06 13:17:41;;;;;;;;;;;6.20;99.90;;;;;;5062718;28;19946;-55
2022/12/06 13:20:22;;;;;;;;;;;6.20;99.90;;;;;;5060378;28;19916;-55
2022/12/06 13:22:50;;;;;;;;;;;6.20;99.90;;;;;;5061049;28;19921;-56
2022/12/06 13:25:15;;;;;;;;;;;6.20;99.90;;;;;;5063579;28;20011;-59
2022/12/06 13:27:45;;;;;;;;;;;6.10;99.90;;;;;;5060423;28;20364;-58
2022/12/06 13:30:12;;;;;;;;;;;6.10;99.90;;;;;;5060994;28;20390;-59
2022/12/06 13:32:43;;;;;;;;;;;6.20;99.90;;;;;;5059821;28;19923;-58
2022/12/06 13:35:16;;;;;;;;;;;6.20;99.90;;;;;;5069095;28;20281;-57
2022/12/06 13:37:44;;;;;;;;;;;6.20;99.90;;;;;;5064977;28;19927;-56
2022/12/06 13:40:28;;;;;;;;;;;6.20;99.90;;;;;;5067616;28;20003;-53
2022/12/06 13:42:54;;;;;;;;;;;6.30;99.90;;;;;;5067501;28;19920;-58
2022/12/06 13:45:34;;;;;;;;;;;6.30;99.90;;;;;;5068037;28;19958;-55
2022/12/06 13:48:00;;;;;;;;;;;6.30;99.90;;;;;;5067120;28;19912;-54
2022/12/06 13:50:25;;;;;;;;;;;6.40;99.90;;;;;;5064109;28;19913;-54
2022/12/06 13:52:51;;;;;;;;;;;6.30;99.90;;;;;;5061412;28;19913;-56
2022/12/06 13:55:22;;;;;;;;;;;6.20;99.90;;;;;;5061684;28;20378;-56
2022/12/06 13:57:48;;;;;;;;;;;6.20;99.90;;;;;;5067423;28;19931;-57
2022/12/06 14:00:42;;;;;;;;;;;6.20;99.90;;;;;;5067567;28;19912;-58
2022/12/06 14:03:14;;;;;;;;;;;6.10;99.90;;;;;;5067860;28;19915;-58
2022/12/06 14:05:55;;;;;;;;;;;6.00;99.90;;;;;;5057770;28;20224;-55
2022/12/06 14:08:22;;;;;;;;;;;6.00;99.90;;;;;;5064399;28;20405;-57
2022/12/06 14:10:47;;;;;;;;;;;6.00;99.90;;;;;;5066850;28;19924;-54
2022/12/06 14:13:19;;;;;;;;;;;6.00;99.90;;;;;;5065838;28;19923;-56
2022/12/06 14:15:46;;;;;;;;;;;6.00;99.90;;;;;;5062744;28;19925;-55
2022/12/06 14:18:18;;;;;;;;;;;6.00;99.90;;;;;;5061277;28;20011;-56
2022/12/06 14:20:46;;;;;;;;;;;6.00;99.90;;;;;;5063695;28;20298;-56
2022/12/06 14:23:21;;;;;;;;;;;6.10;99.90;;;;;;5062213;28;19917;-55
2022/12/06 14:25:47;;;;;;;;;;;6.10;99.90;;;;;;5063403;28;19924;-57
2022/12/06 14:28:13;;;;;;;;;;;6.10;99.90;;;;;;5064610;28;20267;-55
2022/12/06 14:30:38;;;;;;;;;;;6.10;99.90;;;;;;5069077;28;20386;-57
2022/12/06 14:33:16;;;;;;;;;;;6.10;99.90;;;;;;5071267;28;19923;-58
2022/12/06 14:35:47;;;;;;;;;;;6.10;99.90;;;;;;5072316;28;19966;-56
2022/12/06 14:38:19;;;;;;;;;;;5.90;99.90;;;;;;5067969;28;19924;-57
2022/12/06 14:43:29;;;;;;;;;;;5.90;99.90;;;;;;5071436;28;19915;-59
2022/12/06 14:45:56;;;;;;;;;;;5.80;99.90;;;;;;5069854;28;19924;-54
2022/12/06 14:48:21;;;;;;;;;;;5.80;99.90;;;;;;5070431;28;19919;-57
2022/12/06 14:50:49;;;;;;;;;;;5.70;99.90;;;;;;5068081;28;19912;-56
2022/12/06 14:53:26;;;;;;;;;;;5.70;99.90;;;;;;5071171;28;19924;-57
2022/12/06 14:55:53;;;;;;;;;;;5.70;99.90;;;;;;5071849;28;19913;-53
2022/12/06 14:58:26;;;;;;;;;;;5.70;99.90;;;;;;5072252;28;20005;-56
2022/12/06 15:00:53;;;;;;;;;;;5.60;99.90;;;;;;5072333;28;19909;-57
2022/12/06 15:03:21;;;;;;;;;;;5.40;99.90;;;;;;5070232;28;19912;-55
2022/12/06 15:05:48;;;;;;;;;;;5.40;99.90;;;;;;5070304;28;19916;-56